首页
METAR-TAF:

METAR-TAF

机场 :

布鲁塞尔机场

布鲁塞尔, 比利时

纬度: 50-54N, 经度: 004-32E, 海拔: 55米

当前天气观测

该预报发布于47分钟前的18:20 UTC
风速14节,风向西南
温度 7°C
湿度 76%
气压 1020 hPa
能见度10公里或以上
少量云层高于4000英尺

METAR: EBBR 181820Z 22014KT 9999 FEW040 07/03 Q1020 NOSIG

时间: 20:07 (19:07 UTC)

预报

该预报发布于2小时和3分钟前的17:04 UTC
预报有效从18日的 18点(UTC)到 19日的 24点(UTC)
风速16节,风向西南,有时为28节阵风
能见度10公里或以上
少量云层高于2000英尺
散云层高于3000英尺
短暂存在
从 18日的 19点(UTC)到 19日的 02点(UTC)
能見度: 4000
多云层高于1400英尺, 积雨云.
阵雨, 雨
几率 40% :
短暂存在
从 18日的 21点(UTC)到 18日的 24点(UTC)
风速20节,风向西南,有时为38节阵风
能見度: 2500
阵雨, 阵雨, 小冰雹或雪球
成为
从 19日的 00点(UTC)到 19日的 02点(UTC)
风速12节,风向西
几率 40% :
短暂存在
从 19日的 18点(UTC)到 19日的 24点(UTC)
能見度: 4500
多云层高于1200英尺

TAF: EBBR 181704Z 1818/1924 22016G28KT 9999 FEW020 SCT030 TEMPO 1819/1902 4000 SHRA RA BKN014CB PROB40 TEMPO 1821/1824 22020G38KT 2500 SHRA SHRAGS BECMG 1900/1902 26012KT PROB40 TEMPO 1918/1924 4500 RA BKN012

超过4000个机场的气象观测和天气预报(METAR&TAF报告)。

可查询的气象台以黄色和红色小点在地图上表示。

将鼠标移到小点上方,可查看气象台名称。

然后点击查看天气观测和预报。

如需切换地图:点击带黑十字的绿色按钮放大地图;点击带横线的绿色按钮缩小地图;或者点击绿色箭头查看邻近地区的地图。


METAR-TAF: